sensor_id;sensor_type;location;lat;lon;timestamp;pressure;altitude;pressure_sealevel;temperature;humidity
4326;BME280;58429;49.826;10.880;2022-11-20T00:00:11;98185;;;3.31;83.64
4326;BME280;58429;49.826;10.880;2022-11-20T00:01:12;98182;;;3.31;83.64
4326;BME280;58429;49.826;10.880;2022-11-20T00:02:10;98182;;;3.31;83.64
4326;BME280;58429;49.826;10.880;2022-11-20T00:03:10;98175;;;3.31;83.64
4326;BME280;58429;49.826;10.880;2022-11-20T00:04:10;98181;;;3.31;83.64
4326;BME280;58429;49.826;10.880;2022-11-20T00:05:11;98174;;;3.31;83.64
4326;BME280;58429;49.826;10.880;2022-11-20T00:06:11;98173;;;3.31;83.64
4326;BME280;58429;49.826;10.880;2022-11-20T00:07:11;98179;;;3.31;83.64
4326;BME280;58429;49.826;10.880;2022-11-20T00:08:10;98165;;;3.31;83.64
4326;BME280;58429;49.826;10.880;2022-11-20T00:09:10;98168;;;3.31;83.64
4326;BME280;58429;49.826;10.880;2022-11-20T00:10:10;98165;;;3.31;83.64
4326;BME280;58429;49.826;10.880;2022-11-20T00:11:11;98173;;;3.31;83.64
4326;BME280;58429;49.826;10.880;2022-11-20T00:12:10;98171;;;3.31;83.64
4326;BME280;58429;49.826;10.880;2022-11-20T00:13:10;98175;;;3.31;83.64
4326;BME280;58429;49.826;10.880;2022-11-20T00:14:11;98165;;;3.31;83.64
4326;BME280;58429;49.826;10.880;2022-11-20T00:15:11;98169;;;3.31;83.64
4326;BME280;58429;49.826;10.880;2022-11-20T00:16:11;98168;;;3.31;83.64
4326;BME280;58429;49.826;10.880;2022-11-20T00:17:11;98166;;;3.31;83.64
4326;BME280;58429;49.826;10.880;2022-11-20T00:18:10;98161;;;3.31;83.64
4326;BME280;58429;49.826;10.880;2022-11-20T00:19:10;98172;;;3.31;83.64
4326;BME280;58429;49.826;10.880;2022-11-20T00:20:11;98169;;;3.31;83.64
4326;BME280;58429;49.826;10.880;2022-11-20T00:21:11;98172;;;3.31;83.64
4326;BME280;58429;49.826;10.880;2022-11-20T00:22:10;98176;;;3.31;83.64
4326;BME280;58429;49.826;10.880;2022-11-20T00:23:10;98173;;;3.31;83.64
4326;BME280;58429;49.826;10.880;2022-11-20T00:24:10;98175;;;3.31;83.64
4326;BME280;58429;49.826;10.880;2022-11-20T00:25:10;98171;;;3.31;83.64
4326;BME280;58429;49.826;10.880;2022-11-20T00:26:11;98163;;;3.31;83.64
4326;BME280;58429;49.826;10.880;2022-11-20T00:27:10;98168;;;3.31;83.64
4326;BME280;58429;49.826;10.880;2022-11-20T00:28:11;98166;;;3.31;83.64
4326;BME280;58429;49.826;10.880;2022-11-20T00:29:10;98175;;;3.31;83.64
4326;BME280;58429;49.826;10.880;2022-11-20T00:30:10;98164;;;3.31;83.64
4326;BME280;58429;49.826;10.880;2022-11-20T00:31:12;98164;;;3.31;83.64
4326;BME280;58429;49.826;10.880;2022-11-20T00:32:10;98172;;;3.31;83.64
4326;BME280;58429;49.826;10.880;2022-11-20T00:33:10;98173;;;3.31;83.64
4326;BME280;58429;49.826;10.880;2022-11-20T00:34:10;98169;;;3.31;83.64
4326;BME280;58429;49.826;10.880;2022-11-20T00:35:10;98175;;;3.31;83.64
4326;BME280;58429;49.826;10.880;2022-11-20T00:36:12;98177;;;3.31;83.64
4326;BME280;58429;49.826;10.880;2022-11-20T00:37:10;98171;;;3.31;83.64
4326;BME280;58429;49.826;10.880;2022-11-20T00:38:10;98175;;;3.31;83.64
4326;BME280;58429;49.826;10.880;2022-11-20T00:39:10;98178;;;3.31;83.64
4326;BME280;58429;49.826;10.880;2022-11-20T00:40:11;98176;;;3.31;83.64
4326;BME280;58429;49.826;10.880;2022-11-20T00:41:11;98170;;;3.31;83.64
4326;BME280;58429;49.826;10.880;2022-11-20T00:42:10;98172;;;3.31;83.64
4326;BME280;58429;49.826;10.880;2022-11-20T00:43:10;98164;;;3.31;83.64
4326;BME280;58429;49.826;10.880;2022-11-20T00:44:10;98161;;;3.31;83.64
4326;BME280;58429;49.826;10.880;2022-11-20T00:45:10;98166;;;3.31;83.64
4326;BME280;58429;49.826;10.880;2022-11-20T00:46:12;98162;;;3.31;83.64
4326;BME280;58429;49.826;10.880;2022-11-20T00:47:11;98161;;;3.31;83.64
4326;BME280;58429;49.826;10.880;2022-11-20T00:48:10;98157;;;3.31;83.64
4326;BME280;58429;49.826;10.880;2022-11-20T00:49:11;98157;;;3.31;83.64
4326;BME280;58429;49.826;10.880;2022-11-20T00:50:12;98156;;;3.31;83.64
4326;BME280;58429;49.826;10.880;2022-11-20T00:51:11;98152;;;3.31;83.64
4326;BME280;58429;49.826;10.880;2022-11-20T00:52:11;98163;;;3.31;83.64
4326;BME280;58429;49.826;10.880;2022-11-20T00:53:10;98162;;;3.31;83.64
4326;BME280;58429;49.826;10.880;2022-11-20T00:54:10;98165;;;3.31;83.64
4326;BME280;58429;49.826;10.880;2022-11-20T00:55:10;98171;;;3.31;83.64
4326;BME280;58429;49.826;10.880;2022-11-20T00:56:11;98179;;;3.31;83.64
4326;BME280;58429;49.826;10.880;2022-11-20T00:57:10;98178;;;3.31;83.64
4326;BME280;58429;49.826;10.880;2022-11-20T00:58:10;98177;;;3.31;83.64
4326;BME280;58429;49.826;10.880;2022-11-20T00:59:10;98183;;;3.31;83.64
4326;BME280;58429;49.826;10.880;2022-11-20T01:00:10;98181;;;3.31;83.64
4326;BME280;58429;49.826;10.880;2022-11-20T01:01:12;98187;;;3.31;83.64
4326;BME280;58429;49.826;10.880;2022-11-20T01:02:10;98190;;;3.31;83.64
4326;BME280;58429;49.826;10.880;2022-11-20T01:03:11;98194;;;3.31;83.64
4326;BME280;58429;49.826;10.880;2022-11-20T01:04:10;98198;;;3.31;83.64
4326;BME280;58429;49.826;10.880;2022-11-20T01:05:10;98196;;;3.31;83.64
4326;BME280;58429;49.826;10.880;2022-11-20T01:06:11;98192;;;3.31;83.64
4326;BME280;58429;49.826;10.880;2022-11-20T01:07:10;98191;;;3.31;83.64
4326;BME280;58429;49.826;10.880;2022-11-20T01:08:11;98194;;;3.31;83.64
4326;BME280;58429;49.826;10.880;2022-11-20T01:09:11;98204;;;3.31;83.64
4326;BME280;58429;49.826;10.880;2022-11-20T01:10:11;98206;;;3.31;83.64
4326;BME280;58429;49.826;10.880;2022-11-20T01:11:11;98204;;;3.31;83.64
4326;BME280;58429;49.826;10.880;2022-11-20T01:12:11;98205;;;3.31;83.64
4326;BME280;58429;49.826;10.880;2022-11-20T01:13:10;98204;;;3.31;83.64
4326;BME280;58429;49.826;10.880;2022-11-20T01:14:12;98217;;;3.31;83.64
4326;BME280;58429;49.826;10.880;2022-11-20T01:15:10;98216;;;3.31;83.64
4326;BME280;58429;49.826;10.880;2022-11-20T01:16:11;98215;;;3.31;83.64
4326;BME280;58429;49.826;10.880;2022-11-20T01:17:10;98208;;;3.31;83.64
4326;BME280;58429;49.826;10.880;2022-11-20T01:18:10;98209;;;3.31;83.64
4326;BME280;58429;49.826;10.880;2022-11-20T01:19:12;98206;;;3.31;83.64
4326;BME280;58429;49.826;10.880;2022-11-20T01:20:11;98201;;;3.31;83.64
4326;BME280;58429;49.826;10.880;2022-11-20T01:21:11;98191;;;3.31;83.64
4326;BME280;58429;49.826;10.880;2022-11-20T01:22:10;98189;;;3.31;83.64
4326;BME280;58429;49.826;10.880;2022-11-20T01:23:10;98192;;;3.31;83.64
4326;BME280;58429;49.826;10.880;2022-11-20T01:24:12;98191;;;3.31;83.64
4326;BME280;58429;49.826;10.880;2022-11-20T01:25:10;98194;;;3.31;83.64
4326;BME280;58429;49.826;10.880;2022-11-20T01:26:12;98189;;;3.31;83.64
4326;BME280;58429;49.826;10.880;2022-11-20T01:27:10;98188;;;3.31;83.64
4326;BME280;58429;49.826;10.880;2022-11-20T01:28:10;98199;;;3.31;83.64
4326;BME280;58429;49.826;10.880;2022-11-20T01:29:12;98199;;;3.31;83.64
4326;BME280;58429;49.826;10.880;2022-11-20T01:30:11;98201;;;3.31;83.64
4326;BME280;58429;49.826;10.880;2022-11-20T01:31:11;98189;;;3.31;83.64
4326;BME280;58429;49.826;10.880;2022-11-20T01:32:10;98194;;;3.31;83.64
4326;BME280;58429;49.826;10.880;2022-11-20T01:33:11;98195;;;3.31;83.64
4326;BME280;58429;49.826;10.880;2022-11-20T01:34:11;98198;;;3.31;83.64
4326;BME280;58429;49.826;10.880;2022-11-20T01:35:10;98201;;;3.31;83.64
4326;BME280;58429;49.826;10.880;2022-11-20T01:36:11;98204;;;3.31;83.64
4326;BME280;58429;49.826;10.880;2022-11-20T01:37:10;98200;;;3.31;83.64
4326;BME280;58429;49.826;10.880;2022-11-20T01:38:10;98202;;;3.31;83.64
4326;BME280;58429;49.826;10.880;2022-11-20T01:39:11;98191;;;3.31;83.64
4326;BME280;58429;49.826;10.880;2022-11-20T01:40:11;98193;;;3.31;83.64
4326;BME280;58429;49.826;10.880;2022-11-20T01:41:11;98191;;;3.31;83.64
4326;BME280;58429;49.826;10.880;2022-11-20T01:42:10;98194;;;3.31;83.64
4326;BME280;58429;49.826;10.880;2022-11-20T01:43:12;98188;;;3.31;83.64
4326;BME280;58429;49.826;10.880;2022-11-20T01:44:11;98189;;;3.31;83.64
4326;BME280;58429;49.826;10.880;2022-11-20T01:46:13;98190;;;3.31;83.64
4326;BME280;58429;49.826;10.880;2022-11-20T01:46:16;98193;;;3.31;83.64
4326;BME280;58429;49.826;10.880;2022-11-20T01:47:11;98189;;;3.31;83.64
4326;BME280;58429;49.826;10.880;2022-11-20T01:48:10;98188;;;3.31;83.64
4326;BME280;58429;49.826;10.880;2022-11-20T01:49:11;98190;;;3.31;83.64
4326;BME280;58429;49.826;10.880;2022-11-20T01:50:11;98188;;;3.31;83.64
4326;BME280;58429;49.826;10.880;2022-11-20T01:51:15;98182;;;3.31;83.64
4326;BME280;58429;49.826;10.880;2022-11-20T01:52:12;98189;;;3.31;83.64
4326;BME280;58429;49.826;10.880;2022-11-20T01:53:12;98183;;;3.31;83.64
4326;BME280;58429;49.826;10.880;2022-11-20T01:54:12;98185;;;3.31;83.64
4326;BME280;58429;49.826;10.880;2022-11-20T01:55:11;98179;;;3.31;83.64
4326;BME280;58429;49.826;10.880;2022-11-20T01:56:16;98176;;;3.31;83.64
4326;BME280;58429;49.826;10.880;2022-11-20T01:57:10;98176;;;3.31;83.64
4326;BME280;58429;49.826;10.880;2022-11-20T01:58:10;98176;;;3.31;83.64
4326;BME280;58429;49.826;10.880;2022-11-20T01:59:11;98178;;;3.31;83.64
4326;BME280;58429;49.826;10.880;2022-11-20T02:00:12;98183;;;3.31;83.64
4326;BME280;58429;49.826;10.880;2022-11-20T02:01:11;98176;;;3.31;83.64
4326;BME280;58429;49.826;10.880;2022-11-20T02:02:10;98179;;;3.31;83.64
4326;BME280;58429;49.826;10.880;2022-11-20T02:03:11;98174;;;3.31;83.64
4326;BME280;58429;49.826;10.880;2022-11-20T02:04:10;98173;;;3.31;83.64
4326;BME280;58429;49.826;10.880;2022-11-20T02:05:13;98176;;;3.31;83.64
4326;BME280;58429;49.826;10.880;2022-11-20T02:06:12;98169;;;3.31;83.64
4326;BME280;58429;49.826;10.880;2022-11-20T02:07:10;98170;;;3.31;83.64
4326;BME280;58429;49.826;10.880;2022-11-20T02:08:11;98166;;;3.31;83.64
4326;BME280;58429;49.826;10.880;2022-11-20T02:09:10;98174;;;3.31;83.64
4326;BME280;58429;49.826;10.880;2022-11-20T02:10:11;98177;;;3.31;83.64
4326;BME280;58429;49.826;10.880;2022-11-20T02:11:10;98181;;;3.31;83.64
4326;BME280;58429;49.826;10.880;2022-11-20T02:12:11;98176;;;3.31;83.64
4326;BME280;58429;49.826;10.880;2022-11-20T02:13:10;98175;;;3.31;83.64
4326;BME280;58429;49.826;10.880;2022-11-20T02:14:10;98172;;;3.31;83.64
4326;BME280;58429;49.826;10.880;2022-11-20T02:15:10;98172;;;3.31;83.64
4326;BME280;58429;49.826;10.880;2022-11-20T02:16:13;98170;;;3.31;83.64
4326;BME280;58429;49.826;10.880;2022-11-20T02:17:11;98182;;;3.31;83.64
4326;BME280;58429;49.826;10.880;2022-11-20T02:18:11;98181;;;3.31;83.64
4326;BME280;58429;49.826;10.880;2022-11-20T02:19:13;98179;;;3.31;83.64
4326;BME280;58429;49.826;10.880;2022-11-20T02:20:11;98183;;;3.31;83.64
4326;BME280;58429;49.826;10.880;2022-11-20T02:21:13;98178;;;3.31;83.64
4326;BME280;58429;49.826;10.880;2022-11-20T02:22:12;98174;;;3.31;83.64
4326;BME280;58429;49.826;10.880;2022-11-20T02:23:11;98187;;;3.31;83.64
4326;BME280;58429;49.826;10.880;2022-11-20T02:24:11;98187;;;3.31;83.64
4326;BME280;58429;49.826;10.880;2022-11-20T02:25:11;98185;;;3.31;83.64
4326;BME280;58429;49.826;10.880;2022-11-20T02:26:11;98189;;;3.31;83.64
4326;BME280;58429;49.826;10.880;2022-11-20T02:27:11;98185;;;3.31;83.64
4326;BME280;58429;49.826;10.880;2022-11-20T02:28:10;98176;;;3.31;83.64
4326;BME280;58429;49.826;10.880;2022-11-20T02:29:11;98179;;;3.31;83.64
4326;BME280;58429;49.826;10.880;2022-11-20T02:30:11;98183;;;3.31;83.64
4326;BME280;58429;49.826;10.880;2022-11-20T02:31:10;98182;;;3.31;83.64
4326;BME280;58429;49.826;10.880;2022-11-20T02:32:17;98184;;;3.31;83.64
4326;BME280;58429;49.826;10.880;2022-11-20T02:33:11;98178;;;3.31;83.64
4326;BME280;58429;49.826;10.880;2022-11-20T02:34:11;98183;;;3.31;83.64
4326;BME280;58429;49.826;10.880;2022-11-20T02:35:39;98179;;;3.31;83.64
4326;BME280;58429;49.826;10.880;2022-11-20T02:36:11;98182;;;3.31;83.64
4326;BME280;58429;49.826;10.880;2022-11-20T02:37:10;98177;;;3.31;83.64
4326;BME280;58429;49.826;10.880;2022-11-20T02:38:10;98174;;;3.31;83.64
4326;BME280;58429;49.826;10.880;2022-11-20T02:39:11;98171;;;3.31;83.64
4326;BME280;58429;49.826;10.880;2022-11-20T02:40:11;98172;;;3.31;83.64
4326;BME280;58429;49.826;10.880;2022-11-20T02:41:10;98169;;;3.31;83.64
4326;BME280;58429;49.826;10.880;2022-11-20T02:42:11;98175;;;3.31;83.64
4326;BME280;58429;49.826;10.880;2022-11-20T02:43:10;98171;;;3.31;83.64
4326;BME280;58429;49.826;10.880;2022-11-20T02:44:11;98173;;;3.31;83.64
4326;BME280;58429;49.826;10.880;2022-11-20T02:45:10;98165;;;3.31;83.64
4326;BME280;58429;49.826;10.880;2022-11-20T02:46:10;98168;;;3.31;83.64
4326;BME280;58429;49.826;10.880;2022-11-20T02:47:10;98161;;;3.31;83.64
4326;BME280;58429;49.826;10.880;2022-11-20T02:48:11;98161;;;3.31;83.64
4326;BME280;58429;49.826;10.880;2022-11-20T02:49:10;98158;;;3.31;83.64
4326;BME280;58429;49.826;10.880;2022-11-20T02:50:11;98155;;;3.31;83.64
4326;BME280;58429;49.826;10.880;2022-11-20T02:51:10;98151;;;3.31;83.64
4326;BME280;58429;49.826;10.880;2022-11-20T02:52:11;98159;;;3.31;83.64
4326;BME280;58429;49.826;10.880;2022-11-20T02:53:10;98167;;;3.31;83.64
4326;BME280;58429;49.826;10.880;2022-11-20T02:54:10;98162;;;3.31;83.64
4326;BME280;58429;49.826;10.880;2022-11-20T02:55:11;98164;;;3.31;83.64
4326;BME280;58429;49.826;10.880;2022-11-20T02:56:11;98169;;;3.31;83.64
4326;BME280;58429;49.826;10.880;2022-11-20T02:57:11;98160;;;3.31;83.64
4326;BME280;58429;49.826;10.880;2022-11-20T02:58:10;98161;;;3.31;83.64
4326;BME280;58429;49.826;10.880;2022-11-20T02:59:10;98156;;;3.31;83.64
4326;BME280;58429;49.826;10.880;2022-11-20T03:00:11;98153;;;3.31;83.64
4326;BME280;58429;49.826;10.880;2022-11-20T03:01:11;98150;;;3.31;83.64
4326;BME280;58429;49.826;10.880;2022-11-20T03:02:10;98157;;;3.31;83.64
4326;BME280;58429;49.826;10.880;2022-11-20T03:03:10;98151;;;3.31;83.64
4326;BME280;58429;49.826;10.880;2022-11-20T03:04:10;98144;;;3.31;83.64
4326;BME280;58429;49.826;10.880;2022-11-20T03:05:10;98139;;;3.31;83.64
4326;BME280;58429;49.826;10.880;2022-11-20T03:06:11;98131;;;3.31;83.64
4326;BME280;58429;49.826;10.880;2022-11-20T03:07:11;98139;;;3.31;83.64
4326;BME280;58429;49.826;10.880;2022-11-20T03:08:10;98137;;;3.31;83.64
4326;BME280;58429;49.826;10.880;2022-11-20T03:09:11;98134;;;3.31;83.64
4326;BME280;58429;49.826;10.880;2022-11-20T03:10:11;98140;;;3.31;83.64
4326;BME280;58429;49.826;10.880;2022-11-20T03:11:11;98138;;;3.31;83.64
4326;BME280;58429;49.826;10.880;2022-11-20T03:12:11;98144;;;3.31;83.64
4326;BME280;58429;49.826;10.880;2022-11-20T03:13:11;98144;;;3.31;83.64
4326;BME280;58429;49.826;10.880;2022-11-20T03:14:11;98149;;;3.31;83.64
4326;BME280;58429;49.826;10.880;2022-11-20T03:15:10;98132;;;3.31;83.64
4326;BME280;58429;49.826;10.880;2022-11-20T03:16:11;98145;;;3.31;83.64
4326;BME280;58429;49.826;10.880;2022-11-20T03:17:11;98139;;;3.31;83.64
4326;BME280;58429;49.826;10.880;2022-11-20T03:18:11;98140;;;3.31;83.64
4326;BME280;58429;49.826;10.880;2022-11-20T03:19:11;98142;;;3.31;83.64
4326;BME280;58429;49.826;10.880;2022-11-20T03:20:11;98141;;;3.31;83.64
4326;BME280;58429;49.826;10.880;2022-11-20T03:21:11;98144;;;3.31;83.64
4326;BME280;58429;49.826;10.880;2022-11-20T03:22:11;98156;;;3.31;83.64
4326;BME280;58429;49.826;10.880;2022-11-20T03:23:10;98152;;;3.31;83.64
4326;BME280;58429;49.826;10.880;2022-11-20T03:24:10;98151;;;3.31;83.64
4326;BME280;58429;49.826;10.880;2022-11-20T03:25:10;98155;;;3.31;83.64
4326;BME280;58429;49.826;10.880;2022-11-20T03:26:12;98159;;;3.31;83.64
4326;BME280;58429;49.826;10.880;2022-11-20T03:27:11;98158;;;3.31;83.64
4326;BME280;58429;49.826;10.880;2022-11-20T03:28:11;98167;;;3.31;83.64
4326;BME280;58429;49.826;10.880;2022-11-20T03:29:11;98163;;;3.31;83.64
4326;BME280;58429;49.826;10.880;2022-11-20T03:30:11;98160;;;3.31;83.64
4326;BME280;58429;49.826;10.880;2022-11-20T03:31:11;98156;;;3.31;83.64
4326;BME280;58429;49.826;10.880;2022-11-20T03:32:11;98154;;;3.31;83.64
4326;BME280;58429;49.826;10.880;2022-11-20T03:33:11;98151;;;3.31;83.64
4326;BME280;58429;49.826;10.880;2022-11-20T03:34:11;98151;;;3.31;83.64
4326;BME280;58429;49.826;10.880;2022-11-20T03:35:11;98154;;;3.31;83.64
4326;BME280;58429;49.826;10.880;2022-11-20T03:36:12;98141;;;3.31;83.64
4326;BME280;58429;49.826;10.880;2022-11-20T03:37:11;98136;;;3.31;83.64
4326;BME280;58429;49.826;10.880;2022-11-20T03:38:11;98140;;;3.31;83.64
4326;BME280;58429;49.826;10.880;2022-11-20T03:39:11;98140;;;3.31;83.64
4326;BME280;58429;49.826;10.880;2022-11-20T03:40:11;98134;;;3.31;83.64
4326;BME280;58429;49.826;10.880;2022-11-20T03:41:12;98135;;;3.31;83.64
4326;BME280;58429;49.826;10.880;2022-11-20T03:42:11;98132;;;3.31;83.64
4326;BME280;58429;49.826;10.880;2022-11-20T03:43:11;98135;;;3.31;83.64
4326;BME280;58429;49.826;10.880;2022-11-20T03:44:11;98138;;;3.31;83.64
4326;BME280;58429;49.826;10.880;2022-11-20T03:45:11;98130;;;3.31;83.64
4326;BME280;58429;49.826;10.880;2022-11-20T03:46:11;98127;;;3.31;83.64
4326;BME280;58429;49.826;10.880;2022-11-20T03:47:11;98133;;;3.31;83.64
4326;BME280;58429;49.826;10.880;2022-11-20T03:48:11;98132;;;3.31;83.64
4326;BME280;58429;49.826;10.880;2022-11-20T03:49:11;98134;;;3.31;83.64
4326;BME280;58429;49.826;10.880;2022-11-20T03:50:11;98123;;;3.31;83.64
4326;BME280;58429;49.826;10.880;2022-11-20T03:51:12;98127;;;3.31;83.64
4326;BME280;58429;49.826;10.880;2022-11-20T03:52:11;98131;;;3.31;83.64
4326;BME280;58429;49.826;10.880;2022-11-20T03:53:11;98131;;;3.31;83.64
4326;BME280;58429;49.826;10.880;2022-11-20T03:54:11;98135;;;3.31;83.64
4326;BME280;58429;49.826;10.880;2022-11-20T03:55:11;98136;;;3.31;83.64
4326;BME280;58429;49.826;10.880;2022-11-20T03:56:11;98134;;;3.31;83.64
4326;BME280;58429;49.826;10.880;2022-11-20T03:57:11;98123;;;3.31;83.64
4326;BME280;58429;49.826;10.880;2022-11-20T03:58:11;98118;;;3.31;83.64
4326;BME280;58429;49.826;10.880;2022-11-20T03:59:11;98115;;;3.31;83.64
4326;BME280;58429;49.826;10.880;2022-11-20T04:00:11;98123;;;3.31;83.64
4326;BME280;58429;49.826;10.880;2022-11-20T04:01:11;98120;;;3.31;83.64
4326;BME280;58429;49.826;10.880;2022-11-20T04:02:11;98118;;;3.31;83.64
4326;BME280;58429;49.826;10.880;2022-11-20T04:03:11;98115;;;3.31;83.64
4326;BME280;58429;49.826;10.880;2022-11-20T04:04:11;98122;;;3.31;83.64
4326;BME280;58429;49.826;10.880;2022-11-20T04:05:11;98124;;;3.31;83.64
4326;BME280;58429;49.826;10.880;2022-11-20T04:06:12;98132;;;3.31;83.64
4326;BME280;58429;49.826;10.880;2022-11-20T04:07:11;98137;;;3.31;83.64
4326;BME280;58429;49.826;10.880;2022-11-20T04:08:11;98129;;;3.31;83.64
4326;BME280;58429;49.826;10.880;2022-11-20T04:09:11;98128;;;3.31;83.64
4326;BME280;58429;49.826;10.880;2022-11-20T04:10:11;98132;;;3.31;83.64
4326;BME280;58429;49.826;10.880;2022-11-20T04:11:11;98133;;;3.31;83.64
4326;BME280;58429;49.826;10.880;2022-11-20T04:12:11;98137;;;3.31;83.64
4326;BME280;58429;49.826;10.880;2022-11-20T04:13:11;98138;;;3.31;83.64
4326;BME280;58429;49.826;10.880;2022-11-20T04:14:12;98137;;;3.31;83.64
4326;BME280;58429;49.826;10.880;2022-11-20T04:15:11;98138;;;3.31;83.64
4326;BME280;58429;49.826;10.880;2022-11-20T04:16:11;98125;;;3.31;83.64
4326;BME280;58429;49.826;10.880;2022-11-20T04:17:11;98131;;;3.31;83.64
4326;BME280;58429;49.826;10.880;2022-11-20T04:18:11;98126;;;3.31;83.64
4326;BME280;58429;49.826;10.880;2022-11-20T04:19:11;98124;;;3.31;83.64
4326;BME280;58429;49.826;10.880;2022-11-20T04:20:11;98123;;;3.31;83.64
4326;BME280;58429;49.826;10.880;2022-11-20T04:21:11;98115;;;3.31;83.64
4326;BME280;58429;49.826;10.880;2022-11-20T04:22:11;98107;;;3.31;83.64
4326;BME280;58429;49.826;10.880;2022-11-20T04:23:11;98102;;;3.31;83.64
4326;BME280;58429;49.826;10.880;2022-11-20T04:24:11;98109;;;3.31;83.64
4326;BME280;58429;49.826;10.880;2022-11-20T04:25:11;98113;;;3.31;83.64
4326;BME280;58429;49.826;10.880;2022-11-20T04:26:11;98119;;;3.31;83.64
4326;BME280;58429;49.826;10.880;2022-11-20T04:27:11;98114;;;3.31;83.64
4326;BME280;58429;49.826;10.880;2022-11-20T04:28:11;98117;;;3.31;83.64
4326;BME280;58429;49.826;10.880;2022-11-20T04:29:11;98121;;;3.31;83.64
4326;BME280;58429;49.826;10.880;2022-11-20T04:30:11;98114;;;3.31;83.64
4326;BME280;58429;49.826;10.880;2022-11-20T04:31:12;98122;;;3.31;83.64
4326;BME280;58429;49.826;10.880;2022-11-20T04:32:11;98117;;;3.31;83.64
4326;BME280;58429;49.826;10.880;2022-11-20T04:33:11;98116;;;3.31;83.64
4326;BME280;58429;49.826;10.880;2022-11-20T04:34:11;98117;;;3.31;83.64
4326;BME280;58429;49.826;10.880;2022-11-20T04:35:11;98117;;;3.31;83.64
4326;BME280;58429;49.826;10.880;2022-11-20T04:36:12;98116;;;3.31;83.64
4326;BME280;58429;49.826;10.880;2022-11-20T04:37:11;98111;;;3.31;83.64
4326;BME280;58429;49.826;10.880;2022-11-20T04:38:11;98115;;;3.31;83.64
4326;BME280;58429;49.826;10.880;2022-11-20T04:39:11;98108;;;3.31;83.64
4326;BME280;58429;49.826;10.880;2022-11-20T04:40:11;98110;;;3.31;83.64
4326;BME280;58429;49.826;10.880;2022-11-20T04:41:12;98114;;;3.31;83.64
4326;BME280;58429;49.826;10.880;2022-11-20T04:42:11;98112;;;3.31;83.64
4326;BME280;58429;49.826;10.880;2022-11-20T04:43:11;98114;;;3.31;83.64
4326;BME280;58429;49.826;10.880;2022-11-20T04:44:11;98105;;;3.31;83.64
4326;BME280;58429;49.826;10.880;2022-11-20T04:45:11;98103;;;3.31;83.64
4326;BME280;58429;49.826;10.880;2022-11-20T04:46:11;98098;;;3.31;83.64
4326;BME280;58429;49.826;10.880;2022-11-20T04:47:11;98102;;;3.31;83.64
4326;BME280;58429;49.826;10.880;2022-11-20T04:48:11;98105;;;3.31;83.64
4326;BME280;58429;49.826;10.880;2022-11-20T04:49:11;98105;;;3.31;83.64
4326;BME280;58429;49.826;10.880;2022-11-20T04:50:11;98112;;;3.31;83.64
4326;BME280;58429;49.826;10.880;2022-11-20T04:51:11;98116;;;3.31;83.64
4326;BME280;58429;49.826;10.880;2022-11-20T04:52:11;98115;;;3.31;83.64
4326;BME280;58429;49.826;10.880;2022-11-20T04:53:11;98115;;;3.31;83.64
4326;BME280;58429;49.826;10.880;2022-11-20T04:54:11;98117;;;3.31;83.64
4326;BME280;58429;49.826;10.880;2022-11-20T04:55:11;98119;;;3.31;83.64
4326;BME280;58429;49.826;10.880;2022-11-20T04:56:11;98123;;;3.31;83.64
4326;BME280;58429;49.826;10.880;2022-11-20T04:57:12;98124;;;3.31;83.64
4326;BME280;58429;49.826;10.880;2022-11-20T04:58:11;98126;;;3.31;83.64
4326;BME280;58429;49.826;10.880;2022-11-20T04:59:11;98118;;;3.31;83.64
4326;BME280;58429;49.826;10.880;2022-11-20T05:00:11;98120;;;3.31;83.64
4326;BME280;58429;49.826;10.880;2022-11-20T05:01:11;98114;;;3.31;83.64
4326;BME280;58429;49.826;10.880;2022-11-20T05:02:11;98109;;;3.31;83.64
4326;BME280;58429;49.826;10.880;2022-11-20T05:03:11;98104;;;3.31;83.64
4326;BME280;58429;49.826;10.880;2022-11-20T05:04:11;98101;;;3.31;83.64
4326;BME280;58429;49.826;10.880;2022-11-20T05:05:11;98102;;;3.31;83.64
4326;BME280;58429;49.826;10.880;2022-11-20T05:06:11;98098;;;3.31;83.64
4326;BME280;58429;49.826;10.880;2022-11-20T05:07:11;98107;;;3.31;83.64
4326;BME280;58429;49.826;10.880;2022-11-20T05:08:11;98106;;;3.31;83.64
4326;BME280;58429;49.826;10.880;2022-11-20T05:09:11;98100;;;3.31;83.64
4326;BME280;58429;49.826;10.880;2022-11-20T05:10:11;98106;;;3.31;83.64
4326;BME280;58429;49.826;10.880;2022-11-20T05:11:11;98111;;;3.31;83.64
4326;BME280;58429;49.826;10.880;2022-11-20T05:12:11;98104;;;3.31;83.64
4326;BME280;58429;49.826;10.880;2022-11-20T05:13:11;98105;;;3.31;83.64
4326;BME280;58429;49.826;10.880;2022-11-20T05:14:11;98116;;;3.31;83.64
4326;BME280;58429;49.826;10.880;2022-11-20T05:15:11;98115;;;3.31;83.64
4326;BME280;58429;49.826;10.880;2022-11-20T05:16:11;98116;;;3.31;83.64
4326;BME280;58429;49.826;10.880;2022-11-20T05:17:11;98107;;;3.31;83.64
4326;BME280;58429;49.826;10.880;2022-11-20T05:18:11;98094;;;3.31;83.64
4326;BME280;58429;49.826;10.880;2022-11-20T05:19:11;98087;;;3.31;83.64
4326;BME280;58429;49.826;10.880;2022-11-20T05:20:11;98084;;;3.31;83.64
4326;BME280;58429;49.826;10.880;2022-11-20T05:21:11;98084;;;3.31;83.64
4326;BME280;58429;49.826;10.880;2022-11-20T05:22:11;98081;;;3.31;83.64
4326;BME280;58429;49.826;10.880;2022-11-20T05:23:11;98090;;;3.31;83.64
4326;BME280;58429;49.826;10.880;2022-11-20T05:24:11;98095;;;3.31;83.64
4326;BME280;58429;49.826;10.880;2022-11-20T05:25:11;98097;;;3.31;83.64
4326;BME280;58429;49.826;10.880;2022-11-20T05:26:15;98101;;;3.31;83.64
4326;BME280;58429;49.826;10.880;2022-11-20T05:27:11;98099;;;3.31;83.64
4326;BME280;58429;49.826;10.880;2022-11-20T05:28:11;98107;;;3.31;83.64
4326;BME280;58429;49.826;10.880;2022-11-20T05:29:11;98110;;;3.31;83.64
4326;BME280;58429;49.826;10.880;2022-11-20T05:30:11;98112;;;3.31;83.64
4326;BME280;58429;49.826;10.880;2022-11-20T05:31:12;98113;;;3.31;83.64
4326;BME280;58429;49.826;10.880;2022-11-20T05:32:11;98109;;;3.31;83.64
4326;BME280;58429;49.826;10.880;2022-11-20T05:33:11;98111;;;3.31;83.64
4326;BME280;58429;49.826;10.880;2022-11-20T05:34:11;98119;;;3.31;83.64
4326;BME280;58429;49.826;10.880;2022-11-20T05:35:11;98112;;;3.31;83.64